Time;durP1;ratioP1;P1;durP2;ratioP2;P2;SDS_P1;SDS_P2;PMS_P1;PMS_P2;Temp;Humidity;BMP_temperature;BMP_pressure;BME280_temperature;BME280_humidity;BME280_pressure;Samples;Min_cycle;Max_cycle;Signal;HPM_P1;HPM_P2
2021/04/01 00:00:48;;;;;;;12.60;10.10;;;14.30;59.40;;;;;;5106915;28;20279;-70
2021/04/01 00:03:16;;;;;;;12.50;9.83;;;14.40;58.80;;;;;;5107204;28;20225;-70
2021/04/01 00:05:41;;;;;;;10.70;9.60;;;14.40;58.90;;;;;;5103219;28;20453;-70
2021/04/01 00:08:07;;;;;;;14.10;9.90;;;14.40;58.80;;;;;;5099147;28;20465;-70
2021/04/01 00:10:42;;;;;;;14.33;8.50;;;14.50;58.80;;;;;;5102274;28;20203;-70
2021/04/01 00:13:08;;;;;;;17.27;10.70;;;14.50;58.60;;;;;;5093087;28;20201;-70
2021/04/01 00:15:36;;;;;;;12.37;9.07;;;14.50;58.50;;;;;;5095963;28;20426;-71
2021/04/01 00:18:02;;;;;;;11.37;8.80;;;14.60;58.50;;;;;;5111532;28;20464;-71
2021/04/01 00:20:28;;;;;;;14.97;10.53;;;14.60;58.50;;;;;;5104409;28;20445;-70
2021/04/01 00:22:54;;;;;;;11.83;9.33;;;14.60;58.60;;;;;;5103868;28;20803;-70
2021/04/01 00:25:21;;;;;;;14.50;10.20;;;14.50;58.80;;;;;;5092589;28;20179;-70
2021/04/01 00:27:46;;;;;;;10.73;8.90;;;14.50;58.90;;;;;;5107160;28;20184;-71
2021/04/01 00:30:14;;;;;;;14.33;9.13;;;14.50;58.80;;;;;;5100138;28;20786;-70
2021/04/01 00:32:40;;;;;;;17.90;10.80;;;14.50;59.00;;;;;;5107813;28;20172;-70
2021/04/01 00:35:06;;;;;;;13.20;8.47;;;14.50;58.80;;;;;;5093064;28;20444;-70
2021/04/01 00:37:32;;;;;;;13.40;9.30;;;14.50;58.40;;;;;;5115008;28;20456;-71
2021/04/01 00:39:58;;;;;;;10.00;8.93;;;14.60;58.70;;;;;;5105563;28;20449;-70
2021/04/01 00:42:24;;;;;;;11.13;9.13;;;14.60;58.60;;;;;;5112033;28;20452;-71
2021/04/01 00:44:50;;;;;;;11.53;8.43;;;14.60;58.50;;;;;;5109271;28;20880;-70
2021/04/01 00:47:16;;;;;;;12.83;9.47;;;14.60;58.50;;;;;;5103343;28;20179;-70
2021/04/01 00:49:41;;;;;;;13.77;8.77;;;14.70;58.30;;;;;;5104727;28;20283;-70
2021/04/01 00:52:09;;;;;;;14.43;9.23;;;14.70;58.30;;;;;;5110490;28;20463;-71
2021/04/01 00:54:36;;;;;;;14.33;9.90;;;14.70;58.40;;;;;;5095221;28;20182;-70
2021/04/01 00:57:02;;;;;;;12.10;9.40;;;14.70;58.60;;;;;;5107718;28;20460;-71
2021/04/01 00:59:28;;;;;;;13.20;10.97;;;14.70;58.80;;;;;;5106421;28;20460;-70
2021/04/01 01:02:04;;;;;;;12.40;9.27;;;14.70;58.90;;;;;;5100981;28;20458;-70
2021/04/01 01:04:31;;;;;;;13.43;10.83;;;14.60;59.00;;;;;;5098660;28;20489;-70
2021/04/01 01:06:56;;;;;;;14.00;10.13;;;14.50;59.30;;;;;;5105154;28;20437;-72
2021/04/01 01:09:22;;;;;;;10.30;8.77;;;14.50;59.80;;;;;;5096492;28;20494;-70
2021/04/01 01:11:47;;;;;;;14.73;10.10;;;14.40;60.50;;;;;;5101926;28;20179;-70
2021/04/01 01:14:13;;;;;;;13.37;8.80;;;14.30;60.90;;;;;;5115094;28;20266;-70
2021/04/01 01:16:39;;;;;;;14.40;9.03;;;14.30;61.50;;;;;;5111681;28;20681;-71
2021/04/01 01:19:05;;;;;;;10.73;9.63;;;14.20;62.40;;;;;;5099539;28;20275;-70
2021/04/01 01:21:31;;;;;;;11.50;8.90;;;14.20;63.20;;;;;;5098469;28;20165;-71
2021/04/01 01:23:57;;;;;;;12.20;9.70;;;14.10;64.30;;;;;;5113613;28;20433;-71
2021/04/01 01:26:23;;;;;;;12.30;10.10;;;14.00;65.80;;;;;;5111681;28;20424;-70
2021/04/01 01:28:49;;;;;;;15.07;9.73;;;14.00;68.30;;;;;;5111982;28;20183;-70
2021/04/01 01:31:17;;;;;;;11.07;9.37;;;13.90;68.10;;;;;;5112932;28;21013;-70
2021/04/01 01:33:43;;;;;;;10.77;9.10;;;13.90;68.40;;;;;;5096281;28;20221;-71
2021/04/01 01:36:10;;;;;;;10.70;9.03;;;13.80;69.00;;;;;;5103461;28;20434;-70
2021/04/01 01:38:36;;;;;;;15.47;9.17;;;13.80;69.40;;;;;;5105198;28;20252;-70
2021/04/01 01:41:03;;;;;;;13.13;8.10;;;13.80;70.40;;;;;;5097421;28;20476;-70
2021/04/01 01:43:29;;;;;;;8.90;7.73;;;13.70;70.50;;;;;;5101838;28;20221;-71
2021/04/01 01:45:55;;;;;;;10.97;8.70;;;13.70;70.50;;;;;;5111305;28;20448;-69
2021/04/01 01:48:21;;;;;;;10.20;7.93;;;13.70;71.80;;;;;;5110810;28;20967;-70
2021/04/01 01:50:47;;;;;;;12.60;8.10;;;13.60;73.30;;;;;;5100969;28;20192;-70
2021/04/01 01:53:12;;;;;;;15.50;8.70;;;13.60;75.30;;;;;;5109394;28;20540;-70
2021/04/01 01:55:39;;;;;;;12.70;8.47;;;13.50;77.30;;;;;;5109696;28;20175;-70
2021/04/01 01:58:05;;;;;;;9.90;8.53;;;13.50;78.30;;;;;;5108265;28;20703;-70
2021/04/01 02:00:41;;;;;;;8.63;7.73;;;13.40;80.10;;;;;;5113095;28;20450;-71
2021/04/01 02:03:08;;;;;;;10.27;7.77;;;13.30;80.80;;;;;;5121807;28;20452;-70
2021/04/01 02:05:35;;;;;;;11.13;8.90;;;13.20;81.70;;;;;;5109077;28;20429;-70
2021/04/01 02:08:02;;;;;;;12.10;8.57;;;13.10;83.40;;;;;;5102832;28;20436;-70
2021/04/01 02:10:33;;;;;;;10.57;9.47;;;13.00;85.00;;;;;;5111247;28;20974;-71
2021/04/01 02:13:00;;;;;;;10.00;7.80;;;13.00;86.70;;;;;;5095310;28;20525;-70
2021/04/01 02:15:38;;;;;;;11.33;7.93;;;12.80;88.60;;;;;;5098162;28;20438;-70
2021/04/01 02:18:12;;;;;;;12.77;8.30;;;12.80;90.10;;;;;;5095447;28;20461;-71
2021/04/01 02:20:46;;;;;;;9.17;8.20;;;12.80;90.80;;;;;;5109955;28;20460;-70
2021/04/01 02:23:19;;;;;;;12.57;8.10;;;12.80;91.20;;;;;;5100712;28;20520;-71
2021/04/01 02:25:46;;;;;;;9.70;7.57;;;12.80;91.30;;;;;;5102637;28;20434;-70
2021/04/01 02:28:14;;;;;;;14.47;8.93;;;12.80;91.80;;;;;;5104814;28;20457;-70
2021/04/01 02:30:42;;;;;;;10.27;8.10;;;12.80;92.10;;;;;;5107954;28;20449;-70
2021/04/01 02:33:08;;;;;;;12.90;8.00;;;12.70;92.50;;;;;;5098077;28;20438;-70
2021/04/01 02:35:35;;;;;;;8.07;7.30;;;12.60;92.90;;;;;;5104767;28;20566;-70
2021/04/01 02:38:01;;;;;;;11.53;8.37;;;12.60;93.30;;;;;;5105238;28;20466;-71
2021/04/01 02:40:26;;;;;;;9.33;8.20;;;12.60;93.70;;;;;;5095490;28;20540;-71
2021/04/01 02:42:54;;;;;;;8.67;7.47;;;12.60;93.80;;;;;;5094872;28;20176;-71
2021/04/01 02:45:19;;;;;;;11.57;8.57;;;12.60;94.00;;;;;;5101355;28;20552;-71
2021/04/01 02:47:45;;;;;;;8.10;6.93;;;12.60;94.30;;;;;;5102822;28;20486;-70
2021/04/01 02:50:12;;;;;;;9.67;7.60;;;12.60;94.40;;;;;;5103788;28;20259;-71
2021/04/01 02:52:38;;;;;;;8.47;7.50;;;12.60;94.80;;;;;;5095174;28;20245;-71
2021/04/01 02:55:07;;;;;;;12.40;8.50;;;12.50;95.10;;;;;;5101986;28;20942;-70
2021/04/01 02:57:32;;;;;;;10.70;8.30;;;12.50;95.50;;;;;;5100777;28;20958;-70
2021/04/01 03:00:02;;;;;;;10.77;8.10;;;12.60;95.40;;;;;;5104152;28;20441;-71
2021/04/01 03:02:28;;;;;;;10.37;8.47;;;12.60;95.40;;;;;;5109399;28;20172;-71
2021/04/01 03:04:54;;;;;;;11.70;7.90;;;12.50;95.50;;;;;;5108162;28;20429;-71
2021/04/01 03:07:20;;;;;;;17.43;8.17;;;12.50;95.80;;;;;;5103944;28;20434;-70
2021/04/01 03:09:46;;;;;;;11.03;8.47;;;12.50;96.30;;;;;;5095529;28;20210;-71
2021/04/01 03:12:11;;;;;;;9.60;8.47;;;12.50;96.30;;;;;;5106141;28;20512;-71
2021/04/01 03:14:37;;;;;;;10.20;8.37;;;12.50;96.40;;;;;;5108512;28;20187;-70
2021/04/01 03:17:03;;;;;;;10.50;8.23;;;12.40;96.60;;;;;;5099688;28;20880;-71
2021/04/01 03:19:29;;;;;;;12.33;8.57;;;12.40;96.90;;;;;;5096806;28;20196;-71
2021/04/01 03:21:54;;;;;;;9.67;8.53;;;12.40;97.00;;;;;;5098941;28;21149;-70
2021/04/01 03:24:20;;;;;;;16.60;9.83;;;12.30;97.20;;;;;;5093484;28;20187;-70
2021/04/01 03:26:45;;;;;;;12.03;7.83;;;12.30;97.20;;;;;;5100351;28;20276;-70
2021/04/01 03:29:11;;;;;;;11.40;9.80;;;12.30;97.60;;;;;;5101963;28;20199;-70
2021/04/01 03:31:37;;;;;;;11.47;8.50;;;12.30;98.10;;;;;;5101496;28;20175;-70
2021/04/01 03:34:03;;;;;;;11.77;9.10;;;12.20;98.50;;;;;;5098661;28;20434;-70
2021/04/01 03:36:29;;;;;;;12.43;9.43;;;12.20;98.80;;;;;;5101027;28;20171;-70
2021/04/01 03:38:55;;;;;;;9.40;8.17;;;12.20;98.70;;;;;;5096123;28;20603;-70
2021/04/01 03:41:21;;;;;;;16.73;8.77;;;12.20;99.00;;;;;;5104020;28;20172;-70
2021/04/01 03:43:46;;;;;;;12.33;7.73;;;12.20;99.90;;;;;;5107271;28;20429;-70
2021/04/01 03:46:13;;;;;;;11.83;8.30;;;12.10;99.90;;;;;;5104921;28;20184;-70
2021/04/01 03:48:39;;;;;;;9.07;7.40;;;12.10;99.90;;;;;;5097069;28;20231;-70
2021/04/01 03:51:05;;;;;;;12.30;8.47;;;12.00;99.90;;;;;;5092053;28;20430;-70
2021/04/01 03:53:31;;;;;;;10.60;8.60;;;12.00;99.90;;;;;;5107191;28;20433;-70
2021/04/01 03:55:56;;;;;;;10.30;8.23;;;11.90;99.90;;;;;;5094503;28;20230;-70
2021/04/01 03:58:43;;;;;;;13.17;8.80;;;11.90;99.90;;;;;;5097936;28;20673;-70
2021/04/01 04:06:39;;;;;;;17.70;10.87;;;11.80;99.90;;;;;;5093104;28;20518;-72
2021/04/01 04:12:06;;;;;;;14.60;9.47;;;11.70;99.90;;;;;;5113545;28;20523;-72
2021/04/01 04:15:09;;;;;;;12.03;8.27;;;11.70;99.90;;;;;;5101106;28;20452;-72
2021/04/01 04:17:23;;;;;;;10.87;8.93;;;11.70;99.90;;;;;;5098960;28;20491;-71
2021/04/01 04:19:49;;;;;;;14.17;9.90;;;11.80;99.90;;;;;;5106656;28;20865;-71
2021/04/01 04:22:14;;;;;;;14.00;9.27;;;11.80;99.90;;;;;;5110340;28;20172;-71
2021/04/01 04:24:40;;;;;;;13.27;9.53;;;11.80;99.90;;;;;;5099148;28;20259;-72
2021/04/01 04:27:32;;;;;;;12.10;8.90;;;11.80;99.90;;;;;;5090833;28;20176;-72
2021/04/01 04:30:00;;;;;;;24.07;16.80;;;11.80;99.90;;;;;;5094167;28;20597;-72
2021/04/01 04:32:27;;;;;;;17.30;11.60;;;11.80;99.90;;;;;;5090559;28;20441;-72
2021/04/01 04:34:52;;;;;;;12.10;9.63;;;11.80;99.90;;;;;;5103893;28;20430;-72
2021/04/01 04:37:19;;;;;;;12.60;9.23;;;11.80;99.90;;;;;;5114524;27;20449;-72
2021/04/01 04:39:44;;;;;;;17.60;10.17;;;11.80;99.90;;;;;;5115895;27;20199;-71
2021/04/01 04:42:10;;;;;;;17.70;9.40;;;11.80;99.90;;;;;;5123817;27;20424;-72
2021/04/01 04:44:35;;;;;;;14.00;9.00;;;11.80;99.90;;;;;;5124877;27;20199;-71
2021/04/01 04:47:01;;;;;;;12.03;9.03;;;11.80;99.90;;;;;;5102104;28;20168;-72
2021/04/01 04:49:26;;;;;;;12.23;8.70;;;11.90;99.90;;;;;;5112864;28;20270;-72
2021/04/01 04:51:52;;;;;;;11.93;8.53;;;11.80;99.90;;;;;;5105638;28;20199;-72
2021/04/01 04:54:17;;;;;;;13.80;9.60;;;11.70;99.90;;;;;;5101572;27;20179;-72
2021/04/01 04:56:44;;;;;;;17.23;9.57;;;11.70;99.90;;;;;;5116116;27;20255;-72
2021/04/01 04:59:14;;;;;;;18.37;9.87;;;11.70;99.90;;;;;;5116776;27;20202;-72
2021/04/01 05:07:02;;;;;;;13.90;9.17;;;11.80;99.90;;;;;;5097926;27;20469;-72
2021/04/01 05:09:27;;;;;;;13.60;9.13;;;11.80;99.90;;;;;;5104137;28;20492;-72
2021/04/01 05:11:53;;;;;;;14.17;8.30;;;11.80;99.90;;;;;;5111292;28;20233;-71
2021/04/01 05:14:19;;;;;;;14.23;9.80;;;11.80;99.90;;;;;;5114232;28;20220;-72
2021/04/01 05:16:44;;;;;;;11.07;9.40;;;11.80;99.90;;;;;;5105196;28;20699;-72
2021/04/01 05:19:12;;;;;;;11.80;9.70;;;11.80;99.90;;;;;;5093785;28;20200;-72
2021/04/01 05:21:50;;;;;;;12.63;7.97;;;11.80;99.90;;;;;;5103015;28;20422;-72
2021/04/01 05:24:18;;;;;;;13.30;8.90;;;11.80;99.90;;;;;;5104847;27;20418;-72
2021/04/01 05:29:28;;;;;;;10.20;9.10;;;12.00;99.90;;;;;;5112476;28;20842;-72
2021/04/01 05:31:53;;;;;;;17.27;8.63;;;12.10;99.90;;;;;;5101761;28;20709;-72
2021/04/01 05:34:20;;;;;;;14.20;8.77;;;12.20;99.90;;;;;;5110539;28;20477;-71
2021/04/01 05:36:46;;;;;;;10.77;8.17;;;12.20;99.90;;;;;;5111094;27;20183;-71
2021/04/01 05:39:16;;;;;;;11.60;8.93;;;12.30;99.90;;;;;;5117131;27;20929;-71
2021/04/01 05:41:45;;;;;;;10.20;8.23;;;12.40;99.90;;;;;;5113778;28;20421;-72
2021/04/01 05:47:08;;;;;;;15.07;11.00;;;12.60;99.90;;;;;;5095337;28;20986;-72
2021/04/01 06:00:37;;;;;;;16.13;9.13;;;12.60;99.90;;;;;;5095381;28;21026;-67
2021/04/01 06:05:52;;;;;;;21.83;11.30;;;12.70;99.90;;;;;;5093479;28;20434;-67
2021/04/01 06:08:24;;;;;;;15.23;9.40;;;12.70;99.90;;;;;;5103505;28;20433;-67
2021/04/01 06:10:51;;;;;;;12.73;9.40;;;12.70;99.90;;;;;;5105211;28;20448;-67
2021/04/01 06:13:18;;;;;;;17.10;10.20;;;12.80;99.90;;;;;;5086560;27;20440;-67
2021/04/01 06:15:48;;;;;;;14.20;11.13;;;12.80;99.90;;;;;;5089428;28;20444;-67
2021/04/01 06:18:16;;;;;;;20.33;11.00;;;12.90;99.90;;;;;;5111092;28;20464;-67
2021/04/01 06:20:45;;;;;;;18.73;9.27;;;12.90;99.90;;;;;;5105181;28;20477;-67
2021/04/01 06:23:16;;;;;;;15.77;10.87;;;13.00;99.90;;;;;;5108140;28;20512;-67
2021/04/01 06:25:49;;;;;;;15.37;9.70;;;13.10;99.90;;;;;;5093246;28;20454;-67
2021/04/01 06:28:19;;;;;;;15.70;9.40;;;13.10;99.90;;;;;;5107679;28;20436;-67
2021/04/01 06:30:56;;;;;;;16.03;11.00;;;13.30;99.50;;;;;;5098479;28;20472;-67
2021/04/01 06:33:24;;;;;;;13.57;9.60;;;13.50;99.50;;;;;;5103481;28;20985;-67
2021/04/01 06:36:03;;;;;;;21.40;9.90;;;13.80;98.20;;;;;;5103833;28;20439;-67
2021/04/01 06:38:35;;;;;;;18.03;8.87;;;13.90;97.70;;;;;;5108653;28;20549;-67
2021/04/01 06:41:13;;;;;;;20.00;10.50;;;14.20;97.60;;;;;;5108109;28;20460;-67
2021/04/01 06:44:00;;;;;;;13.10;8.93;;;14.50;97.20;;;;;;5107104;28;20430;-67
2021/04/01 06:46:30;;;;;;;15.50;9.60;;;15.00;95.50;;;;;;5108820;28;20437;-67
2021/04/01 06:52:10;;;;;;;14.40;9.80;;;15.70;93.30;;;;;;5091422;28;20438;-67
2021/04/01 06:54:36;;;;;;;14.50;10.03;;;16.10;92.50;;;;;;5099157;28;20520;-69
2021/04/01 06:57:30;;;;;;;18.10;10.73;;;16.20;91.30;;;;;;5103519;28;20463;-69
2021/04/01 07:02:40;;;;;;;13.93;9.40;;;16.70;90.60;;;;;;5097928;28;20883;-67
2021/04/01 07:08:06;;;;;;;13.87;8.93;;;17.10;88.60;;;;;;5105381;28;20853;-68
2021/04/01 07:10:52;;;;;;;14.77;9.17;;;17.20;88.30;;;;;;5094205;28;20461;-68
2021/04/01 07:13:23;;;;;;;11.97;9.97;;;17.30;88.20;;;;;;5102131;28;20934;-67
2021/04/01 07:15:53;;;;;;;12.67;8.77;;;17.50;86.60;;;;;;5100464;28;20845;-67
2021/04/01 07:48:45;;;;;;;10.53;7.90;;;18.50;83.40;;;;;;5104327;28;20484;-67
2021/04/01 07:54:15;;;;;;;12.20;8.63;;;19.40;78.40;;;;;;5107157;28;20792;-68
2021/04/01 07:56:47;;;;;;;18.17;8.90;;;19.90;76.50;;;;;;5097493;28;20451;-68
2021/04/01 08:04:17;;;;;;;14.10;8.83;;;21.20;73.00;;;;;;5094317;28;20508;-68
2021/04/01 08:06:43;;;;;;;12.80;8.97;;;21.60;69.90;;;;;;5094950;28;20434;-69
2021/04/01 08:09:13;;;;;;;9.80;8.30;;;21.70;68.90;;;;;;5106763;28;20805;-68
2021/04/01 08:11:45;;;;;;;13.53;6.53;;;22.10;68.00;;;;;;5099214;28;20537;-71
2021/04/01 08:14:32;;;;;;;16.50;7.00;;;22.30;66.60;;;;;;5108129;28;20432;-68
2021/04/01 08:19:31;;;;;;;10.00;5.93;;;23.10;61.80;;;;;;5098754;28;20464;-68
2021/04/01 08:21:59;;;;;;;7.30;4.77;;;23.30;60.20;;;;;;5098798;28;20441;-69
2021/04/01 08:24:41;;;;;;;6.03;5.33;;;23.60;57.30;;;;;;5099834;28;20430;-69
2021/04/01 08:33:05;;;;;;;4.23;3.87;;;23.80;54.60;;;;;;5100002;28;20929;-69
2021/04/01 08:35:32;;;;;;;8.30;3.90;;;23.70;54.50;;;;;;5093980;28;20435;-71
2021/04/01 08:38:13;;;;;;;7.07;5.00;;;24.10;53.50;;;;;;5102012;28;20457;-68
2021/04/01 08:40:41;;;;;;;5.57;4.10;;;24.50;52.60;;;;;;5105667;28;20840;-70
2021/04/01 08:43:36;;;;;;;7.13;4.10;;;24.80;51.30;;;;;;5103726;28;20503;-69
2021/04/01 08:46:23;;;;;;;7.63;4.77;;;25.10;51.90;;;;;;5093122;28;20950;-70
2021/04/01 08:49:07;;;;;;;4.73;3.80;;;25.50;50.20;;;;;;5098493;28;20426;-69
2021/04/01 08:52:11;;;;;;;6.27;3.90;;;25.20;49.70;;;;;;5097126;28;20441;-69
2021/04/01 08:54:51;;;;;;;14.90;4.90;;;24.80;50.00;;;;;;5098218;28;20937;-68
2021/04/01 08:57:46;;;;;;;3.80;3.40;;;24.90;50.30;;;;;;5093450;28;20450;-69
2021/04/01 09:00:14;;;;;;;5.70;4.10;;;25.10;49.60;;;;;;5103079;28;20452;-68
2021/04/01 09:02:49;;;;;;;4.93;3.63;;;25.70;49.00;;;;;;5102074;28;20433;-70
2021/04/01 09:05:15;;;;;;;5.53;3.90;;;25.80;48.50;;;;;;5094294;28;20422;-68
2021/04/01 09:07:46;;;;;;;9.40;5.10;;;25.80;48.50;;;;;;5104381;28;20808;-68
2021/04/01 09:10:17;;;;;;;5.20;4.70;;;26.60;47.70;;;;;;5091706;28;20204;-69
2021/04/01 09:12:50;;;;;;;6.33;5.53;;;27.30;47.00;;;;;;5096275;28;20528;-69
2021/04/01 09:15:28;;;;;;;4.63;4.20;;;28.00;46.20;;;;;;5110098;28;20515;-70
2021/04/01 09:17:54;;;;;;;4.40;4.00;;;28.70;44.60;;;;;;5109001;28;20456;-70
2021/04/01 09:20:23;;;;;;;4.37;3.77;;;28.40;44.10;;;;;;5105960;28;20429;-70
2021/04/01 09:22:52;;;;;;;5.17;3.60;;;28.30;44.80;;;;;;5098341;28;20180;-69
2021/04/01 09:25:19;;;;;;;6.60;4.50;;;28.50;44.00;;;;;;5113733;28;20417;-69
2021/04/01 09:27:53;;;;;;;5.37;4.63;;;28.70;43.10;;;;;;5114069;28;20421;-69
2021/04/01 09:30:22;;;;;;;7.50;5.03;;;28.70;43.10;;;;;;5113759;28;20437;-70
2021/04/01 09:32:51;;;;;;;11.30;6.70;;;28.70;43.00;;;;;;5110458;28;20454;-71
2021/04/01 09:35:17;;;;;;;10.97;6.37;;;28.90;43.30;;;;;;5113895;28;20432;-70
2021/04/01 09:37:59;;;;;;;17.00;7.00;;;29.30;42.90;;;;;;5113678;28;20445;-71
2021/04/01 09:40:52;;;;;;;8.30;6.37;;;29.10;42.50;;;;;;5113564;28;20429;-69
2021/04/01 09:43:20;;;;;;;14.50;8.77;;;28.50;42.80;;;;;;5109837;28;20795;-69
2021/04/01 09:45:47;;;;;;;11.00;7.77;;;28.50;43.30;;;;;;5113649;28;20849;-69
2021/04/01 09:48:14;;;;;;;7.63;6.63;;;28.10;43.20;;;;;;5113749;28;20417;-71
2021/04/01 09:50:47;;;;;;;11.93;7.10;;;28.00;44.00;;;;;;5113196;28;20444;-70
2021/04/01 09:53:21;;;;;;;10.87;7.13;;;28.60;43.70;;;;;;5110255;28;20425;-70
2021/04/01 09:55:50;;;;;;;12.73;7.40;;;29.50;42.80;;;;;;5113538;28;20413;-69
2021/04/01 09:58:18;;;;;;;11.17;7.20;;;30.90;41.30;;;;;;5113501;28;20453;-69
2021/04/01 10:03:27;;;;;;;9.20;8.30;;;31.80;39.50;;;;;;5110131;28;20791;-69
2021/04/01 10:05:53;;;;;;;10.23;8.20;;;31.20;39.90;;;;;;5113393;28;20682;-71
2021/04/01 10:08:37;;;;;;;10.30;7.03;;;31.40;39.60;;;;;;5113393;28;20890;-68
2021/04/01 10:11:23;;;;;;;7.37;6.63;;;32.00;39.40;;;;;;5112913;28;20443;-69
2021/04/01 10:14:01;;;;;;;11.03;6.53;;;32.60;38.80;;;;;;5109695;28;20439;-66
2021/04/01 10:16:27;;;;;;;13.40;6.70;;;33.70;37.50;;;;;;5111800;28;20456;-68
2021/04/01 10:18:55;;;;;;;8.23;5.63;;;35.10;35.80;;;;;;5113035;28;20492;-68
2021/04/01 10:21:21;;;;;;;6.53;5.67;;;35.80;34.70;;;;;;5104135;28;20200;-68
2021/04/01 10:23:54;;;;;;;8.20;5.83;;;36.40;33.70;;;;;;5107645;28;20455;-68
2021/04/01 10:26:25;;;;;;;7.93;6.63;;;35.90;33.90;;;;;;5112953;28;20168;-69
2021/04/01 10:29:03;;;;;;;7.10;6.13;;;37.00;33.00;;;;;;5113023;28;20422;-69
2021/04/01 10:31:30;;;;;;;8.17;6.10;;;37.40;32.90;;;;;;5103678;28;20800;-66
2021/04/01 10:34:05;;;;;;;11.03;6.90;;;37.80;31.80;;;;;;5102227;28;20938;-66
2021/04/01 10:36:32;;;;;;;11.30;6.70;;;38.80;31.30;;;;;;5101802;28;20482;-66
2021/04/01 10:39:08;;;;;;;10.23;6.03;;;39.60;30.20;;;;;;5104639;28;20943;-66
2021/04/01 10:41:47;;;;;;;11.73;7.23;;;40.20;29.60;;;;;;5092749;28;20461;-66
2021/04/01 10:44:14;;;;;;;10.00;7.40;;;40.20;29.20;;;;;;5104291;28;20812;-66
2021/04/01 10:46:42;;;;;;;9.17;5.97;;;39.20;29.10;;;;;;5096755;28;20882;-65
2021/04/01 10:49:10;;;;;;;7.03;6.30;;;38.60;29.40;;;;;;5092382;28;20452;-69
2021/04/01 10:51:36;;;;;;;10.23;5.80;;;38.20;29.50;;;;;;5103086;28;20429;-69
2021/04/01 10:54:09;;;;;;;8.37;5.90;;;38.30;29.60;;;;;;5101916;28;20968;-67
2021/04/01 10:56:54;;;;;;;7.40;6.23;;;38.40;29.40;;;;;;5110535;28;20800;-67
2021/04/01 10:59:36;;;;;;;10.57;5.57;;;39.00;29.40;;;;;;5097482;27;20466;-67
2021/04/01 11:02:08;;;;;;;8.77;5.73;;;41.00;28.90;;;;;;5108290;27;20441;-66
2021/04/01 11:04:35;;;;;;;10.10;6.07;;;41.90;27.70;;;;;;5100573;28;20429;-66
2021/04/01 11:07:03;;;;;;;5.93;5.27;;;39.20;28.10;;;;;;5103825;27;20518;-66
2021/04/01 11:09:30;;;;;;;9.80;6.27;;;39.30;28.70;;;;;;5101606;28;20958;-66
2021/04/01 11:12:15;;;;;;;7.33;6.33;;;38.60;28.90;;;;;;5095130;28;20512;-66
2021/04/01 11:14:49;;;;;;;10.60;6.53;;;39.60;28.40;;;;;;5098648;28;20429;-66
2021/04/01 11:17:24;;;;;;;7.27;6.10;;;40.60;28.10;;;;;;5091530;28;20422;-66
2021/04/01 11:19:53;;;;;;;12.27;6.37;;;39.00;28.20;;;;;;5100404;27;20882;-66
2021/04/01 11:22:19;;;;;;;4.30;3.90;;;40.30;28.10;;;;;;5095033;28;20478;-66
2021/04/01 11:24:46;;;;;;;3.63;3.00;;;39.60;27.00;;;;;;5106285;28;20452;-66
2021/04/01 11:27:17;;;;;;;4.03;3.40;;;39.90;26.70;;;;;;5106865;27;20433;-66
2021/04/01 11:29:55;;;;;;;4.10;3.33;;;40.90;26.30;;;;;;5092917;28;20528;-67
2021/04/01 11:32:29;;;;;;;7.67;7.10;;;42.40;26.30;;;;;;5099647;27;20428;-66
2021/04/01 11:34:58;;;;;;;4.13;3.53;;;43.40;25.40;;;;;;5094023;28;20426;-67
2021/04/01 11:37:29;;;;;;;3.90;3.33;;;43.60;25.20;;;;;;5110636;27;20453;-67
2021/04/01 11:40:00;;;;;;;4.40;2.83;;;41.40;25.70;;;;;;5109783;28;20532;-68
2021/04/01 11:42:26;;;;;;;3.83;3.47;;;37.90;26.20;;;;;;5107428;28;20421;-67
2021/04/01 11:44:58;;;;;;;9.77;5.10;;;37.10;27.40;;;;;;5104879;28;20491;-67
2021/04/01 11:47:24;;;;;;;5.53;4.93;;;37.20;28.60;;;;;;5100213;28;20467;-67
2021/04/01 11:49:51;;;;;;;5.70;4.87;;;37.10;28.50;;;;;;5091066;28;20528;-67
2021/04/01 11:52:19;;;;;;;4.03;3.50;;;38.10;28.30;;;;;;5096339;28;20961;-65
2021/04/01 11:54:46;;;;;;;8.17;3.80;;;39.40;27.50;;;;;;5102281;28;20981;-67
2021/04/01 11:57:19;;;;;;;10.40;4.47;;;40.30;27.30;;;;;;5105155;28;20441;-67
2021/04/01 12:00:00;;;;;;;9.23;4.57;;;40.90;27.10;;;;;;5098829;28;20441;-65
2021/04/01 12:02:27;;;;;;;5.93;4.00;;;41.80;27.10;;;;;;5100492;28;20486;-65
2021/04/01 12:04:57;;;;;;;7.10;3.80;;;42.20;26.40;;;;;;5098521;28;20430;-66
2021/04/01 12:07:22;;;;;;;4.53;3.43;;;43.30;25.70;;;;;;5103376;28;20492;-65
2021/04/01 12:09:52;;;;;;;3.47;3.20;;;42.80;25.30;;;;;;5092417;28;20446;-66
2021/04/01 12:12:28;;;;;;;3.13;2.93;;;42.30;25.80;;;;;;5104154;28;20175;-65
2021/04/01 12:14:54;;;;;;;3.90;3.60;;;43.40;25.50;;;;;;5108082;28;20449;-65
2021/04/01 12:17:40;;;;;;;4.03;3.83;;;44.80;24.90;;;;;;5091138;28;20994;-65
2021/04/01 12:20:13;;;;;;;5.50;3.90;;;45.60;24.80;;;;;;5090360;28;20192;-65
2021/04/01 12:22:44;;;;;;;5.80;3.97;;;45.90;24.30;;;;;;5098461;28;20417;-66
2021/04/01 12:25:19;;;;;;;5.03;3.43;;;45.30;24.20;;;;;;5095742;28;20505;-65
2021/04/01 12:27:53;;;;;;;6.40;3.80;;;42.00;24.80;;;;;;5095447;28;20413;-65
2021/04/01 12:30:25;;;;;;;4.93;4.53;;;42.80;25.00;;;;;;5105078;28;20452;-65
2021/04/01 12:32:51;;;;;;;5.83;3.40;;;43.40;24.80;;;;;;5092335;28;20555;-65
2021/04/01 12:35:18;;;;;;;7.00;3.90;;;42.10;24.80;;;;;;5097356;28;21052;-65
2021/04/01 12:37:57;;;;;;;3.60;3.40;;;40.80;25.40;;;;;;5096165;28;20222;-65
2021/04/01 12:40:23;;;;;;;3.30;2.93;;;40.70;25.20;;;;;;5101411;28;21001;-65
2021/04/01 12:42:49;;;;;;;3.50;3.20;;;41.80;25.10;;;;;;5098966;28;20440;-65
2021/04/01 12:45:16;;;;;;;5.10;3.93;;;43.20;25.10;;;;;;5093589;28;20438;-65
2021/04/01 12:47:42;;;;;;;4.40;4.10;;;42.60;25.30;;;;;;5106124;28;20187;-64
2021/04/01 12:50:09;;;;;;;5.30;4.47;;;41.80;25.60;;;;;;5095130;28;20468;-64
2021/04/01 12:52:53;;;;;;;3.63;3.30;;;40.50;26.20;;;;;;5097261;28;20183;-65
2021/04/01 12:55:39;;;;;;;6.40;3.93;;;41.00;25.90;;;;;;5108274;28;20436;-65
2021/04/01 12:58:08;;;;;;;8.50;4.47;;;41.60;26.00;;;;;;5110577;28;20458;-64
2021/04/01 13:01:19;;;;;;;5.33;3.93;;;42.30;25.50;;;;;;5099511;28;20555;-65
2021/04/01 13:03:22;;;;;;;5.00;3.70;;;41.40;25.90;;;;;;5099630;28;20532;-64
2021/04/01 13:05:53;;;;;;;4.77;3.80;;;39.90;26.20;;;;;;5113333;28;20438;-65
2021/04/01 13:10:45;;;;;;;5.80;3.60;;;40.10;26.30;;;;;;5107317;28;20453;-65
2021/04/01 13:13:12;;;;;;;4.03;3.70;;;40.90;26.30;;;;;;5106459;28;20451;-64
2021/04/01 13:15:38;;;;;;;6.20;4.70;;;40.10;25.70;;;;;;5109647;28;20430;-64
2021/04/01 13:18:06;;;;;;;5.90;3.80;;;40.00;26.10;;;;;;5093876;28;20452;-65
2021/04/01 13:20:32;;;;;;;3.80;3.50;;;38.80;25.90;;;;;;5103866;28;20464;-65
2021/04/01 13:25:26;;;;;;;7.03;4.87;;;36.00;27.50;;;;;;5110704;28;20429;-64
2021/04/01 13:27:53;;;;;;;6.50;5.00;;;34.50;28.50;;;;;;5093327;28;20479;-65
2021/04/01 13:30:21;;;;;;;5.40;4.20;;;33.40;29.10;;;;;;5101612;28;20184;-64
2021/04/01 13:38:15;;;;;;;6.63;4.43;;;33.40;29.00;;;;;;5108849;28;20983;-64
2021/04/01 13:40:43;;;;;;;5.73;4.13;;;32.00;29.70;;;;;;5104861;28;20473;-64
2021/04/01 13:43:12;;;;;;;5.53;5.00;;;30.80;30.40;;;;;;5109978;28;20811;-64
2021/04/01 13:45:41;;;;;;;11.70;5.13;;;30.20;31.70;;;;;;5094808;28;20438;-64
2021/04/01 13:48:14;;;;;;;4.77;4.37;;;30.20;32.10;;;;;;5113435;28;20528;-64
2021/04/01 13:50:47;;;;;;;7.30;4.50;;;29.60;32.20;;;;;;5103933;28;20452;-70
2021/04/01 13:55:44;;;;;;;9.30;5.03;;;28.80;33.40;;;;;;5112847;28;20425;-70
2021/04/01 13:58:20;;;;;;;9.00;4.13;;;28.50;33.80;;;;;;5098558;28;20449;-75
2021/04/01 14:01:06;;;;;;;7.13;4.80;;;28.20;34.20;;;;;;5111853;28;20512;-68
2021/04/01 14:09:30;;;;;;;5.67;4.70;;;28.20;34.50;;;;;;5106040;28;20540;-68
2021/04/01 14:12:01;;;;;;;7.47;4.30;;;28.70;33.40;;;;;;5097570;28;20499;-69
2021/04/01 14:14:28;;;;;;;7.83;4.50;;;28.50;32.80;;;;;;5100521;28;20513;-69
2021/04/01 14:16:55;;;;;;;5.00;4.47;;;27.90;32.80;;;;;;5106050;27;21005;-68
2021/04/01 14:19:23;;;;;;;4.83;4.43;;;27.70;33.50;;;;;;5107741;28;20453;-69
2021/04/01 14:22:00;;;;;;;6.23;5.23;;;27.50;33.80;;;;;;5105485;28;20421;-69
2021/04/01 14:24:31;;;;;;;5.63;4.63;;;27.30;34.40;;;;;;5106081;28;20433;-69
2021/04/01 14:27:22;;;;;;;5.73;4.97;;;26.90;35.00;;;;;;5097746;28;21886;-68
2021/04/01 14:29:55;;;;;;;6.07;4.47;;;26.80;35.30;;;;;;5108176;28;20456;-69
2021/04/01 14:32:21;;;;;;;6.97;5.27;;;26.50;35.90;;;;;;5102147;28;20421;-69
2021/04/01 14:34:48;;;;;;;5.20;4.70;;;26.30;35.60;;;;;;5109535;28;20436;-68
2021/04/01 14:37:14;;;;;;;6.60;5.40;;;26.20;35.60;;;;;;5103143;28;20426;-68
2021/04/01 14:39:40;;;;;;;6.60;5.47;;;26.30;36.10;;;;;;5104430;28;20955;-69
2021/04/01 14:42:12;;;;;;;6.13;5.50;;;26.50;36.30;;;;;;5106783;28;20433;-69
2021/04/01 14:44:37;;;;;;;9.43;5.57;;;26.40;36.60;;;;;;5106493;28;20512;-69